createdAt,value
2023-04-26T00:00:30.944Z,72.89
2023-04-26T00:03:00.241Z,73.25
2023-04-26T00:05:27.349Z,73.59
2023-04-26T00:07:54.520Z,73.93
2023-04-26T00:10:21.330Z,73.56
2023-04-26T00:12:47.966Z,74.96
2023-04-26T00:15:14.945Z,74.74
2023-04-26T00:17:43.101Z,75.61
2023-04-26T00:20:13.725Z,75.36
2023-04-26T00:22:40.910Z,76.53
2023-04-26T00:25:07.839Z,75.29
2023-04-26T00:27:35.200Z,74.61
2023-04-26T00:30:01.739Z,74.60
2023-04-26T00:32:28.489Z,75.61
2023-04-26T00:34:55.406Z,74.90
2023-04-26T00:37:24.084Z,74.55
2023-04-26T00:39:50.873Z,74.67
2023-04-26T00:42:19.651Z,74.33
2023-04-26T00:44:46.369Z,74.14
2023-04-26T00:47:14.529Z,73.57
2023-04-26T00:49:41.458Z,73.07
2023-04-26T00:52:08.205Z,73.04
2023-04-26T00:54:35.351Z,72.66
2023-04-26T00:57:02.642Z,73.13
2023-04-26T00:59:30.646Z,74.06
2023-04-26T01:01:58.516Z,74.30
2023-04-26T01:04:27.420Z,74.70
2023-04-26T01:06:56.779Z,74.49
2023-04-26T01:09:23.300Z,75.62
2023-04-26T01:11:51.732Z,75.45
2023-04-26T01:14:18.496Z,75.43
2023-04-26T01:16:47.013Z,74.23
2023-04-26T01:19:15.290Z,74.44
2023-04-26T01:21:43.525Z,74.65
2023-04-26T01:24:13.418Z,75.51
2023-04-26T01:26:46.636Z,75.43
2023-04-26T01:29:17.041Z,74.36
2023-04-26T01:31:46.938Z,75.84
2023-04-26T01:34:14.300Z,75.08
2023-04-26T01:36:41.106Z,74.11
2023-04-26T01:39:10.474Z,73.74
2023-04-26T01:41:37.335Z,74.31
2023-04-26T01:44:04.447Z,74.69
2023-04-26T01:46:31.359Z,75.41
2023-04-26T01:49:00.244Z,74.87
2023-04-26T01:51:27.174Z,74.67
2023-04-26T01:53:53.762Z,74.53
2023-04-26T01:56:20.848Z,73.94
2023-04-26T01:58:48.244Z,73.98
2023-04-26T02:01:14.844Z,73.82
2023-04-26T02:03:45.004Z,74.21
2023-04-26T02:06:12.644Z,74.17
2023-04-26T02:08:39.578Z,73.80
2023-04-26T02:11:07.062Z,73.73
2023-04-26T02:13:35.901Z,74.50
2023-04-26T02:16:02.802Z,75.00
2023-04-26T02:18:29.982Z,74.33
2023-04-26T02:20:56.653Z,75.38
2023-04-26T02:23:24.298Z,75.03
2023-04-26T02:25:51.250Z,74.85
2023-04-26T02:28:18.328Z,74.60
2023-04-26T02:30:44.946Z,76.70
2023-04-26T02:33:12.098Z,77.22
2023-04-26T02:35:39.162Z,77.50
2023-04-26T02:38:06.253Z,76.44
2023-04-26T02:40:32.964Z,74.89
2023-04-26T02:43:00.129Z,74.96
2023-04-26T02:45:26.910Z,74.94
2023-04-26T02:47:53.876Z,73.97
2023-04-26T02:50:20.995Z,73.75
2023-04-26T02:52:48.577Z,74.63
2023-04-26T02:55:16.217Z,75.61
2023-04-26T02:57:43.208Z,75.63
2023-04-26T03:00:14.444Z,74.92
2023-04-26T03:02:41.836Z,74.32
2023-04-26T03:05:09.880Z,74.66
2023-04-26T03:07:37.429Z,74.43
2023-04-26T03:10:06.183Z,74.00
2023-04-26T03:12:33.678Z,73.70
2023-04-26T03:15:03.903Z,73.56
2023-04-26T03:17:31.285Z,73.78
2023-04-26T03:20:02.981Z,74.36
2023-04-26T03:22:31.944Z,74.64
2023-04-26T03:24:59.336Z,74.36
2023-04-26T03:27:30.385Z,74.09
2023-04-26T03:29:58.280Z,74.72
2023-04-26T03:32:26.177Z,73.55
2023-04-26T03:34:52.776Z,74.03
2023-04-26T03:37:20.020Z,74.79
2023-04-26T03:39:54.082Z,74.88
2023-04-26T03:42:22.850Z,75.04
2023-04-26T03:44:49.484Z,75.77
2023-04-26T03:47:16.042Z,75.84
2023-04-26T03:49:43.150Z,75.73
2023-04-26T03:52:11.131Z,76.33
2023-04-26T03:54:37.794Z,76.39
2023-04-26T03:57:06.867Z,76.42
2023-04-26T03:59:33.780Z,75.83
2023-04-26T04:02:01.002Z,75.92
2023-04-26T04:04:27.980Z,75.41
2023-04-26T04:06:54.747Z,96.52
2023-04-26T04:09:21.662Z,99.25
2023-04-26T04:11:48.444Z,93.03
2023-04-26T04:14:14.990Z,76.59
2023-04-26T04:16:41.622Z,70.26
2023-04-26T04:19:09.938Z,70.67
2023-04-26T04:21:37.787Z,71.50
2023-04-26T04:24:05.981Z,71.47
2023-04-26T04:26:32.572Z,71.77
2023-04-26T04:29:09.302Z,72.37
2023-04-26T04:31:41.308Z,72.26
2023-04-26T04:34:09.318Z,72.32
2023-04-26T04:36:39.313Z,73.32
2023-04-26T04:39:12.534Z,73.31
2023-04-26T04:41:40.713Z,74.25
2023-04-26T04:44:07.614Z,74.16
2023-04-26T04:46:38.678Z,74.10
2023-04-26T04:49:05.266Z,73.75
2023-04-26T04:51:31.801Z,73.79
2023-04-26T04:53:58.615Z,73.41
2023-04-26T04:56:26.167Z,73.25
2023-04-26T04:58:53.924Z,72.81
2023-04-26T05:01:22.081Z,72.96
2023-04-26T05:03:55.639Z,73.24
2023-04-26T05:06:23.421Z,72.99
2023-04-26T05:08:50.189Z,73.20
2023-04-26T05:11:18.237Z,73.38
2023-04-26T05:13:45.223Z,73.37
2023-04-26T05:16:14.875Z,72.59
2023-04-26T05:18:42.315Z,71.96
2023-04-26T05:21:09.787Z,71.29
2023-04-26T05:23:36.358Z,71.11
2023-04-26T05:26:07.500Z,70.39
2023-04-26T05:28:55.512Z,70.08
2023-04-26T05:31:40.975Z,69.46
2023-04-26T05:34:21.336Z,68.38
2023-04-26T05:36:51.807Z,66.91
2023-04-26T05:39:21.309Z,66.15
2023-04-26T05:41:47.876Z,65.54
2023-04-26T05:44:15.157Z,64.46
2023-04-26T05:46:41.715Z,63.24
2023-04-26T05:49:09.862Z,62.04
2023-04-26T05:51:36.478Z,61.67
2023-04-26T05:54:03.818Z,59.97
2023-04-26T05:56:31.011Z,59.75
2023-04-26T05:58:58.454Z,59.01
2023-04-26T06:01:26.661Z,58.13
2023-04-26T06:03:57.024Z,57.32
2023-04-26T06:06:28.418Z,55.93
2023-04-26T06:08:55.662Z,56.13
2023-04-26T06:11:23.459Z,55.23
2023-04-26T06:13:50.003Z,55.41
2023-04-26T06:16:17.514Z,55.42
2023-04-26T06:18:44.289Z,54.56
2023-04-26T06:21:13.952Z,54.60
2023-04-26T06:23:40.695Z,54.37
2023-04-26T06:26:07.449Z,55.35
2023-04-26T06:28:35.513Z,56.79
2023-04-26T06:31:02.799Z,55.42
2023-04-26T06:33:30.912Z,53.81
2023-04-26T06:35:58.364Z,54.09
2023-04-26T06:38:25.171Z,54.09
2023-04-26T06:40:51.852Z,54.60
2023-04-26T06:43:19.851Z,52.90
2023-04-26T06:46:07.048Z,53.22
2023-04-26T06:48:33.764Z,53.30
2023-04-26T06:51:09.514Z,53.61
2023-04-26T06:53:36.888Z,52.44
2023-04-26T06:56:04.000Z,52.81
2023-04-26T06:58:31.124Z,52.36
2023-04-26T07:00:59.418Z,53.06
2023-04-26T07:03:26.208Z,54.08
2023-04-26T07:05:54.801Z,54.53
2023-04-26T07:08:21.304Z,53.87
2023-04-26T07:10:48.188Z,53.11
2023-04-26T07:13:14.656Z,53.05
2023-04-26T07:15:42.227Z,52.60
2023-04-26T07:18:09.559Z,49.25
2023-04-26T07:20:36.506Z,48.98
2023-04-26T07:23:03.136Z,49.93
2023-04-26T07:25:29.800Z,49.81
2023-04-26T07:27:56.358Z,50.49
2023-04-26T07:30:23.624Z,49.55
2023-04-26T07:32:50.276Z,50.39
2023-04-26T07:35:17.017Z,50.14
2023-04-26T07:37:44.501Z,47.49
2023-04-26T07:40:12.158Z,47.71
2023-04-26T07:42:38.655Z,47.76
2023-04-26T07:45:16.385Z,46.39
2023-04-26T07:47:43.261Z,46.65
2023-04-26T07:50:10.820Z,44.54
2023-04-26T07:52:39.407Z,44.68
2023-04-26T07:55:06.838Z,44.03
2023-04-26T07:57:34.656Z,44.11
2023-04-26T08:00:01.390Z,43.09
2023-04-26T08:02:43.370Z,39.50
2023-04-26T08:05:11.180Z,39.30
2023-04-26T08:07:38.028Z,39.21
2023-04-26T08:10:05.178Z,37.71
2023-04-26T08:12:33.762Z,36.82
2023-04-26T08:15:01.605Z,36.64
2023-04-26T08:17:28.112Z,36.59
2023-04-26T08:19:54.692Z,38.56
2023-04-26T08:22:21.296Z,39.20
2023-04-26T08:24:52.681Z,38.67
2023-04-26T08:27:19.502Z,38.95
2023-04-26T08:29:46.461Z,38.39
2023-04-26T08:32:13.234Z,35.28
2023-04-26T08:34:40.450Z,35.99
2023-04-26T08:37:07.974Z,36.33
2023-04-26T08:39:34.529Z,35.61
2023-04-26T08:42:14.644Z,35.39
2023-04-26T08:44:43.438Z,35.04
2023-04-26T08:47:26.017Z,35.55
2023-04-26T08:49:59.543Z,35.77
2023-04-26T08:52:31.151Z,35.71
2023-04-26T08:54:59.790Z,34.70
2023-04-26T08:57:27.576Z,35.77
2023-04-26T08:59:58.037Z,34.50
2023-04-26T09:02:25.098Z,33.44
2023-04-26T09:04:52.527Z,33.25
2023-04-26T09:07:30.830Z,33.42
2023-04-26T09:09:59.190Z,32.75
2023-04-26T09:12:26.258Z,32.13
2023-04-26T09:14:53.220Z,32.90
2023-04-26T09:17:27.871Z,33.11
2023-04-26T09:19:55.006Z,33.93
2023-04-26T09:22:35.951Z,34.23
2023-04-26T09:25:07.356Z,35.36
2023-04-26T09:27:39.240Z,34.30
2023-04-26T09:30:20.725Z,36.70
2023-04-26T09:33:06.115Z,39.64
2023-04-26T09:35:40.640Z,39.83
2023-04-26T09:38:13.823Z,37.61
2023-04-26T09:40:48.874Z,39.64
2023-04-26T09:43:19.508Z,38.82
2023-04-26T09:45:51.939Z,39.53
2023-04-26T09:48:34.978Z,39.26
2023-04-26T09:51:04.473Z,40.27
2023-04-26T09:53:37.286Z,40.16
2023-04-26T09:56:19.022Z,41.51
2023-04-26T09:59:05.856Z,37.67
2023-04-26T10:01:33.516Z,37.43
2023-04-26T10:04:02.345Z,35.65
2023-04-26T10:06:29.521Z,36.48
2023-04-26T10:08:57.120Z,36.29
2023-04-26T10:11:26.266Z,36.76
2023-04-26T10:13:52.926Z,37.57
2023-04-26T10:16:21.781Z,37.50
2023-04-26T10:18:49.701Z,38.44
2023-04-26T10:21:31.991Z,35.64
2023-04-26T10:24:00.443Z,36.83
2023-04-26T10:26:53.670Z,36.88
2023-04-26T10:29:21.870Z,35.79
2023-04-26T10:32:07.003Z,35.87
2023-04-26T10:34:35.317Z,34.85
2023-04-26T10:37:16.890Z,37.62
2023-04-26T10:39:46.225Z,38.07
2023-04-26T10:42:25.455Z,36.24
2023-04-26T10:44:53.506Z,36.03
2023-04-26T10:47:32.412Z,36.36
2023-04-26T10:50:11.836Z,37.60
2023-04-26T10:53:04.802Z,37.56
2023-04-26T10:55:43.794Z,39.26
2023-04-26T10:58:30.748Z,37.44
2023-04-26T11:01:13.776Z,36.71
2023-04-26T11:04:01.693Z,35.42
2023-04-26T11:06:51.035Z,35.74
2023-04-26T11:09:40.705Z,35.28
2023-04-26T11:12:12.667Z,33.89
2023-04-26T11:14:41.747Z,32.90
2023-04-26T11:17:12.345Z,32.85
2023-04-26T11:19:38.905Z,34.66
2023-04-26T11:22:08.136Z,34.27
2023-04-26T11:24:41.708Z,32.68
2023-04-26T11:27:09.517Z,32.63
2023-04-26T11:29:36.584Z,33.51
2023-04-26T11:32:03.912Z,31.20
2023-04-26T11:34:41.659Z,31.47
2023-04-26T11:37:08.593Z,31.80
2023-04-26T11:39:36.147Z,32.64
2023-04-26T11:42:11.752Z,33.74
2023-04-26T11:44:42.206Z,34.47
2023-04-26T11:47:09.527Z,33.63
2023-04-26T11:49:39.260Z,31.99
2023-04-26T11:52:06.696Z,32.03
2023-04-26T11:54:35.851Z,32.53
2023-04-26T11:57:16.156Z,33.24
2023-04-26T11:59:43.952Z,33.69
2023-04-26T12:02:11.029Z,34.72
2023-04-26T12:04:39.912Z,34.99
2023-04-26T12:07:07.937Z,35.35
2023-04-26T12:09:34.625Z,34.44
2023-04-26T12:12:02.287Z,34.86
2023-04-26T12:14:33.083Z,35.17
2023-04-26T12:17:04.667Z,33.55
2023-04-26T12:19:36.591Z,33.29
2023-04-26T12:22:04.186Z,33.39
2023-04-26T12:24:37.133Z,32.76
2023-04-26T12:27:06.153Z,31.73
2023-04-26T12:29:33.537Z,32.00
2023-04-26T12:32:01.396Z,32.54
2023-04-26T12:34:28.086Z,33.37
2023-04-26T12:36:54.775Z,32.24
2023-04-26T12:39:21.985Z,32.38
2023-04-26T12:41:49.376Z,34.12
2023-04-26T12:44:16.486Z,34.41
2023-04-26T12:46:43.675Z,36.62
2023-04-26T12:49:10.540Z,36.82
2023-04-26T12:51:37.377Z,37.15
2023-04-26T12:54:04.019Z,37.99
2023-04-26T12:56:30.818Z,37.05
2023-04-26T12:58:57.853Z,36.63
2023-04-26T13:01:24.782Z,35.59
2023-04-26T13:03:51.820Z,36.89
2023-04-26T13:06:18.473Z,37.39
2023-04-26T13:08:51.314Z,37.92
2023-04-26T13:11:18.104Z,37.83
2023-04-26T13:13:45.147Z,37.55
2023-04-26T13:16:12.986Z,38.34
2023-04-26T13:18:43.340Z,39.10
2023-04-26T13:21:09.915Z,41.84
2023-04-26T13:23:36.515Z,40.60
2023-04-26T13:26:03.841Z,41.22
2023-04-26T13:28:30.440Z,42.12
2023-04-26T13:30:57.365Z,41.03
2023-04-26T13:33:23.997Z,41.53
2023-04-26T13:35:50.565Z,40.48
2023-04-26T13:38:17.499Z,41.59
2023-04-26T13:40:44.816Z,40.51
2023-04-26T13:43:11.431Z,42.95
2023-04-26T13:45:38.734Z,43.76
2023-04-26T13:48:05.561Z,42.86
2023-04-26T13:50:32.126Z,42.67
2023-04-26T13:52:59.649Z,43.32
2023-04-26T13:55:27.528Z,41.48
2023-04-26T13:57:54.059Z,41.81
2023-04-26T14:00:21.056Z,42.12
2023-04-26T14:02:48.552Z,40.52
2023-04-26T14:05:15.675Z,39.63
2023-04-26T14:07:42.503Z,42.16
2023-04-26T14:10:09.553Z,40.29
2023-04-26T14:12:36.072Z,41.14
2023-04-26T14:15:04.349Z,40.04
2023-04-26T14:17:32.567Z,39.76
2023-04-26T14:20:00.157Z,40.38
2023-04-26T14:22:27.256Z,40.28
2023-04-26T14:24:54.427Z,39.74
2023-04-26T14:27:21.291Z,38.49
2023-04-26T14:29:47.889Z,39.26
2023-04-26T14:32:15.016Z,39.80
2023-04-26T14:34:42.585Z,39.48
2023-04-26T14:37:09.419Z,38.88
2023-04-26T14:39:37.347Z,38.19
2023-04-26T14:42:04.487Z,37.86
2023-04-26T14:44:30.983Z,36.51
2023-04-26T14:46:57.902Z,36.76
2023-04-26T14:49:24.636Z,36.88
2023-04-26T14:51:53.525Z,38.06
2023-04-26T14:54:21.126Z,41.09
2023-04-26T14:56:48.675Z,41.63
2023-04-26T14:59:15.753Z,42.05
2023-04-26T15:01:43.472Z,44.06
2023-04-26T15:04:10.192Z,43.25
2023-04-26T15:06:37.273Z,44.19
2023-04-26T15:09:04.662Z,43.46
2023-04-26T15:11:31.221Z,43.45
2023-04-26T15:13:57.697Z,42.45
2023-04-26T15:16:24.325Z,42.01
2023-04-26T15:18:51.016Z,43.05
2023-04-26T15:21:18.401Z,42.52
2023-04-26T15:23:45.136Z,48.78
2023-04-26T15:26:12.127Z,43.82
2023-04-26T15:28:38.989Z,42.45
2023-04-26T15:31:08.677Z,42.75
2023-04-26T15:33:35.815Z,42.08
2023-04-26T15:36:02.821Z,42.92
2023-04-26T15:38:29.350Z,42.03
2023-04-26T15:40:56.315Z,42.05
2023-04-26T15:43:23.061Z,41.43
2023-04-26T15:45:50.081Z,43.88
2023-04-26T15:48:16.778Z,43.58
2023-04-26T15:50:43.244Z,43.72
2023-04-26T15:53:10.423Z,43.19
2023-04-26T15:55:40.270Z,42.35
2023-04-26T15:58:07.161Z,43.65
2023-04-26T16:00:36.699Z,42.03
2023-04-26T16:03:03.630Z,42.99
2023-04-26T16:05:32.338Z,42.12
2023-04-26T16:07:59.725Z,43.40
2023-04-26T16:10:27.461Z,42.64
2023-04-26T16:12:53.997Z,43.54
2023-04-26T16:15:21.106Z,42.81
2023-04-26T16:17:47.915Z,43.46
2023-04-26T16:20:15.567Z,42.96
2023-04-26T16:22:45.092Z,43.56
2023-04-26T16:25:12.100Z,43.44
2023-04-26T16:27:39.180Z,42.98
2023-04-26T16:30:08.011Z,43.10
2023-04-26T16:32:34.608Z,42.71
2023-04-26T16:35:01.514Z,42.53
2023-04-26T16:37:28.558Z,42.49
2023-04-26T16:39:55.846Z,42.94
2023-04-26T16:42:24.528Z,42.44
2023-04-26T16:44:53.428Z,42.67
2023-04-26T16:47:19.982Z,42.92
2023-04-26T16:49:46.735Z,43.31
2023-04-26T16:52:18.411Z,43.11
2023-04-26T16:54:50.944Z,42.88
2023-04-26T16:57:18.194Z,42.44
2023-04-26T16:59:44.779Z,42.79
2023-04-26T17:02:13.085Z,42.42
2023-04-26T17:04:39.911Z,42.48
2023-04-26T17:07:06.947Z,42.75
2023-04-26T17:09:33.960Z,42.85
2023-04-26T17:12:00.781Z,43.16
2023-04-26T17:14:27.829Z,43.36
2023-04-26T17:16:54.604Z,43.30
2023-04-26T17:19:21.911Z,43.61
2023-04-26T17:21:52.400Z,43.06
2023-04-26T17:24:19.282Z,43.09
2023-04-26T17:26:46.744Z,43.26
2023-04-26T17:29:14.032Z,43.10
2023-04-26T17:31:40.624Z,43.51
2023-04-26T17:34:08.408Z,43.83
2023-04-26T17:36:35.642Z,43.45
2023-04-26T17:39:03.467Z,42.88
2023-04-26T17:41:30.088Z,43.44
2023-04-26T17:43:56.554Z,43.27
2023-04-26T17:46:23.437Z,43.51
2023-04-26T17:48:50.167Z,43.73
2023-04-26T17:51:16.948Z,44.02
2023-04-26T17:53:43.478Z,44.50
2023-04-26T17:56:10.968Z,44.08
2023-04-26T17:58:37.484Z,44.33
2023-04-26T18:01:04.688Z,44.40
2023-04-26T18:03:31.804Z,44.39
2023-04-26T18:05:58.822Z,44.86
2023-04-26T18:08:26.065Z,44.86
2023-04-26T18:10:53.953Z,45.03
2023-04-26T18:13:21.208Z,45.27
2023-04-26T18:15:48.512Z,45.69
2023-04-26T18:18:16.276Z,45.97
2023-04-26T18:20:42.865Z,45.85
2023-04-26T18:23:09.613Z,46.30
2023-04-26T18:25:36.559Z,46.39
2023-04-26T18:28:04.723Z,46.79
2023-04-26T18:30:32.648Z,46.88
2023-04-26T18:32:59.684Z,52.14
2023-04-26T18:35:27.356Z,46.71
2023-04-26T18:37:54.492Z,45.97
2023-04-26T18:40:21.560Z,46.18
2023-04-26T18:42:48.064Z,46.69
2023-04-26T18:45:15.716Z,47.06
2023-04-26T18:47:42.710Z,47.33
2023-04-26T18:50:11.435Z,47.96
2023-04-26T18:52:39.661Z,48.86
2023-04-26T18:55:09.267Z,50.04
2023-04-26T18:57:35.972Z,50.42
2023-04-26T19:00:05.311Z,50.79
2023-04-26T19:02:31.965Z,50.89
2023-04-26T19:04:59.612Z,50.91
2023-04-26T19:07:28.388Z,50.79
2023-04-26T19:10:00.855Z,50.82
2023-04-26T19:12:27.897Z,51.56
2023-04-26T19:14:55.158Z,51.61
2023-04-26T19:17:22.450Z,51.96
2023-04-26T19:19:52.717Z,52.34
2023-04-26T19:22:19.722Z,53.41
2023-04-26T19:24:50.172Z,53.69
2023-04-26T19:27:17.934Z,53.99
2023-04-26T19:29:45.137Z,54.11
2023-04-26T19:32:12.417Z,54.60
2023-04-26T19:34:40.695Z,54.00
2023-04-26T19:37:07.278Z,54.84
2023-04-26T19:39:33.796Z,54.97
2023-04-26T19:42:01.727Z,55.43
2023-04-26T19:44:35.980Z,55.45
2023-04-26T19:47:03.100Z,56.17
2023-04-26T19:49:29.662Z,55.79
2023-04-26T19:51:56.503Z,56.17
2023-04-26T19:54:24.335Z,56.49
2023-04-26T19:56:51.121Z,57.09
2023-04-26T19:59:17.909Z,56.81
2023-04-26T20:01:44.509Z,57.53
2023-04-26T20:04:11.163Z,56.87
2023-04-26T20:06:39.149Z,56.30
2023-04-26T20:09:10.728Z,57.02
2023-04-26T20:11:37.591Z,57.55
2023-04-26T20:14:04.388Z,57.95
2023-04-26T20:16:31.329Z,58.40
2023-04-26T20:18:59.927Z,60.12
2023-04-26T20:21:28.973Z,60.33
2023-04-26T20:23:59.940Z,60.65
2023-04-26T20:26:26.768Z,61.10
2023-04-26T20:28:53.999Z,60.65
2023-04-26T20:31:20.787Z,61.40
2023-04-26T20:33:47.599Z,62.21
2023-04-26T20:36:14.505Z,63.32
2023-04-26T20:38:41.096Z,62.93
2023-04-26T20:41:07.601Z,62.41
2023-04-26T20:43:35.932Z,62.85
2023-04-26T20:46:03.394Z,62.57
2023-04-26T20:48:30.190Z,63.60
2023-04-26T20:50:58.720Z,62.90
2023-04-26T20:53:25.994Z,62.87
2023-04-26T20:55:53.740Z,63.44
2023-04-26T20:58:20.310Z,63.70
2023-04-26T21:00:55.610Z,64.81
2023-04-26T21:03:22.668Z,66.23
2023-04-26T21:05:50.084Z,66.76
2023-04-26T21:08:16.897Z,67.22
2023-04-26T21:10:43.679Z,67.48
2023-04-26T21:13:10.216Z,66.92
2023-04-26T21:15:37.038Z,66.83
2023-04-26T21:18:05.201Z,66.51
2023-04-26T21:20:33.463Z,66.02
2023-04-26T21:22:59.967Z,66.24
2023-04-26T21:25:27.914Z,65.96
2023-04-26T21:27:55.444Z,65.42
2023-04-26T21:30:22.270Z,65.83
2023-04-26T21:32:50.688Z,66.11
2023-04-26T21:44:48.958Z,65.87
2023-04-26T21:47:16.651Z,66.65
2023-04-26T21:49:43.383Z,66.15
2023-04-26T21:52:10.243Z,65.67
2023-04-26T21:54:36.873Z,66.77
2023-04-26T21:57:07.120Z,67.05
2023-04-26T21:59:33.885Z,68.35
2023-04-26T22:02:01.158Z,69.73
2023-04-26T22:04:28.416Z,70.95
2023-04-26T22:06:55.278Z,71.23
2023-04-26T22:09:26.307Z,70.93
2023-04-26T22:11:53.150Z,70.91
2023-04-26T22:14:19.964Z,70.29
2023-04-26T22:16:47.106Z,70.21
2023-04-26T22:19:14.917Z,69.94
2023-04-26T22:21:41.966Z,69.31
2023-04-26T22:24:08.951Z,68.28
2023-04-26T22:26:36.057Z,67.50
2023-04-26T22:29:04.053Z,67.48
2023-04-26T22:31:30.999Z,67.10
2023-04-26T22:33:57.610Z,67.45
2023-04-26T22:36:25.611Z,67.56
2023-04-26T22:38:52.556Z,67.60
2023-04-26T22:41:19.112Z,68.39
2023-04-26T22:43:46.230Z,68.01
2023-04-26T22:46:13.193Z,67.59
2023-04-26T22:48:40.028Z,67.54
2023-04-26T22:51:06.837Z,67.82
2023-04-26T22:53:34.412Z,68.13
2023-04-26T22:56:03.377Z,67.63
2023-04-26T22:58:30.314Z,68.03
2023-04-26T23:00:57.128Z,67.80
2023-04-26T23:03:24.225Z,67.57
2023-04-26T23:05:51.843Z,67.11
2023-04-26T23:08:21.746Z,68.13
2023-04-26T23:10:48.458Z,69.25
2023-04-26T23:13:16.191Z,68.92
2023-04-26T23:15:42.624Z,70.74
2023-04-26T23:18:10.506Z,71.67
2023-04-26T23:20:37.525Z,72.16
2023-04-26T23:23:05.215Z,71.44
2023-04-26T23:25:31.714Z,71.83
2023-04-26T23:27:58.311Z,71.85
2023-04-26T23:30:25.051Z,70.67
2023-04-26T23:32:51.937Z,70.04
2023-04-26T23:35:18.434Z,69.67
2023-04-26T23:37:45.981Z,69.61
2023-04-26T23:40:12.912Z,69.43
2023-04-26T23:42:39.547Z,69.62
2023-04-26T23:45:07.814Z,69.26
2023-04-26T23:47:34.814Z,69.52
2023-04-26T23:50:01.889Z,69.33
2023-04-26T23:52:28.850Z,68.87
2023-04-26T23:54:55.643Z,69.39
2023-04-26T23:57:22.428Z,68.67
2023-04-26T23:59:49.342Z,69.37
